Elk City, Kansas
Current Conditions -  °F | °C
As of 5:55 PM on Sunday 23 Nov 2014 (Local Time) from KIDP Reporting Station
Overcast Overcast  
Wind Chill:   Ceiling: 1600
Heat Index:   Visibility: 10mi
Dew Point:   Wind: 26mph
Humidity: 87%   Direction: 340°NNW
Pressure: 29.41"   Gusts: 32mph
Location:  37.29°N, 95.91°W
Report Text: KIDP 232355Z AUTO 34023G28KT 10SM OVC016 08/06 A2941 RMK AO2
Loading
Personal Weather Stations






























Interactive Weather Map New forecast layout! Learn more

10-Day Weather Forecast

Advertisements
Track Severe Weather on mobile